Time;durP1;ratioP1;P1;durP2;ratioP2;P2;SDS_P1;SDS_P2;PMS_P1;PMS_P2;Temp;Humidity;BMP_temperature;BMP_pressure;BME280_temperature;BME280_humidity;BME280_pressure;Samples;Min_cycle;Max_cycle;Signal;HPM_P1;HPM_P2
2023/10/19 00:01:15;;;;;;;15.38;10.50;;;6.90;99.90;;;;;;5038513;28;20024;-76
2023/10/19 00:03:44;;;;;;;18.33;10.60;;;6.50;99.90;;;;;;5037963;28;20542;-77
2023/10/19 00:06:11;;;;;;;18.77;11.40;;;6.50;99.90;;;;;;5037435;28;20068;-77
2023/10/19 00:08:43;;;;;;;17.33;11.48;;;6.50;99.90;;;;;;5038336;28;20028;-76
2023/10/19 00:11:10;;;;;;;18.90;11.07;;;6.40;99.90;;;;;;5038268;28;20033;-76
2023/10/19 00:13:40;;;;;;;19.08;12.10;;;6.40;99.90;;;;;;5036674;28;20048;-76
2023/10/19 00:16:16;;;;;;;23.70;12.32;;;6.40;99.90;;;;;;5039030;28;20018;-77
2023/10/19 00:18:43;;;;;;;21.83;12.55;;;6.50;99.90;;;;;;5043569;28;20021;-79
2023/10/19 00:21:24;;;;;;;21.48;12.27;;;6.40;99.90;;;;;;5044354;28;20033;-76
2023/10/19 00:24:04;;;;;;;22.65;11.77;;;6.40;99.90;;;;;;5061511;28;20059;-77
2023/10/19 00:26:30;;;;;;;18.55;11.45;;;6.30;99.90;;;;;;5044384;28;20056;-78
2023/10/19 00:28:57;;;;;;;17.67;10.98;;;6.30;99.90;;;;;;5046206;28;20029;-76
2023/10/19 00:31:23;;;;;;;18.00;10.93;;;6.40;99.90;;;;;;5046453;28;20025;-78
2023/10/19 00:33:51;;;;;;;18.70;11.23;;;6.30;99.90;;;;;;5047891;28;20032;-77
2023/10/19 00:36:20;;;;;;;14.32;9.77;;;6.30;99.90;;;;;;5050009;28;20018;-76
2023/10/19 00:41:30;;;;;;;19.80;11.02;;;6.30;99.90;;;;;;5036214;28;20499;-75
2023/10/19 00:44:04;;;;;;;19.08;11.70;;;6.40;99.90;;;;;;5034815;28;20382;-76
2023/10/19 00:46:34;;;;;;;19.10;10.98;;;6.30;99.90;;;;;;5033502;28;20120;-76
2023/10/19 00:49:05;;;;;;;17.08;10.77;;;6.40;99.90;;;;;;5050135;28;20037;-74
2023/10/19 00:54:42;;;;;;;16.42;10.52;;;6.40;99.90;;;;;;5034525;28;20049;-76
2023/10/19 00:57:10;;;;;;;18.63;11.48;;;6.40;99.90;;;;;;4957177;28;20026;-76
2023/10/19 00:59:43;;;;;;;17.75;11.30;;;6.50;99.90;;;;;;5036740;28;20378;-76
2023/10/19 01:02:28;;;;;;;18.10;11.02;;;6.50;99.90;;;;;;5034495;28;20029;-76
2023/10/19 01:04:56;;;;;;;18.35;12.13;;;6.80;99.90;;;;;;5049173;28;20051;-77
2023/10/19 01:07:29;;;;;;;16.80;10.23;;;6.50;99.90;;;;;;5034356;28;20749;-76
2023/10/19 01:09:56;;;;;;;17.85;11.40;;;6.40;99.90;;;;;;5033937;28;20103;-76
2023/10/19 01:12:33;;;;;;;20.08;13.18;;;6.20;99.90;;;;;;5032884;28;20089;-75
2023/10/19 01:15:20;;;;;;;21.73;11.65;;;6.30;99.90;;;;;;5033519;28;20025;-77
2023/10/19 01:18:02;;;;;;;17.75;10.70;;;6.40;99.90;;;;;;5034179;28;20022;-76
2023/10/19 01:23:41;;;;;;;17.17;12.25;;;6.40;99.90;;;;;;5033741;28;20389;-75
2023/10/19 01:28:24;;;;;;;17.67;11.35;;;6.30;99.90;;;;;;5033690;28;20060;-77
2023/10/19 01:30:52;;;;;;;17.25;11.18;;;6.30;99.90;;;;;;5033652;28;20024;-76
2023/10/19 01:33:18;;;;;;;17.67;11.50;;;6.30;99.90;;;;;;5032901;28;20022;-76
2023/10/19 01:38:33;;;;;;;18.13;10.45;;;6.30;99.90;;;;;;5033823;28;20524;-74
2023/10/19 01:40:59;;;;;;;15.15;10.38;;;6.50;99.90;;;;;;5033825;28;20026;-76
2023/10/19 01:43:31;;;;;;;18.02;12.57;;;6.30;99.90;;;;;;5033115;28;20017;-75
2023/10/19 01:46:03;;;;;;;18.23;10.93;;;6.30;99.90;;;;;;5034083;28;20032;-75
2023/10/19 01:48:35;;;;;;;19.58;10.85;;;6.30;99.90;;;;;;5034068;28;20021;-75
2023/10/19 01:51:04;;;;;;;15.70;10.50;;;6.20;99.90;;;;;;5033713;28;20104;-75
2023/10/19 01:53:31;;;;;;;20.45;11.02;;;6.20;99.90;;;;;;5031672;28;20036;-75
2023/10/19 01:56:00;;;;;;;19.55;11.35;;;6.10;99.90;;;;;;5033010;28;20052;-75
2023/10/19 01:58:26;;;;;;;16.77;10.65;;;6.20;99.90;;;;;;5033319;28;20048;-74
2023/10/19 02:01:00;;;;;;;16.25;11.50;;;6.10;99.90;;;;;;5033612;28;20473;-75
2023/10/19 02:03:28;;;;;;;18.77;11.85;;;6.10;99.90;;;;;;5032119;28;20048;-76
2023/10/19 02:06:00;;;;;;;18.55;10.52;;;6.10;99.90;;;;;;5033588;28;20539;-75
2023/10/19 02:08:26;;;;;;;21.00;12.13;;;6.00;99.90;;;;;;5033234;28;20397;-76
2023/10/19 02:10:52;;;;;;;20.65;12.02;;;6.00;99.90;;;;;;5033131;28;20032;-74
2023/10/19 02:13:19;;;;;;;17.48;10.85;;;5.80;99.90;;;;;;5033843;28;20022;-76
2023/10/19 02:15:45;;;;;;;18.45;11.10;;;5.80;99.90;;;;;;5036568;28;20025;-77
2023/10/19 02:18:12;;;;;;;14.13;9.50;;;5.80;99.90;;;;;;5036435;28;20370;-73
2023/10/19 02:20:41;;;;;;;16.48;10.75;;;5.80;99.90;;;;;;5034942;28;20515;-76
2023/10/19 02:23:07;;;;;;;18.52;12.18;;;5.80;99.90;;;;;;5035898;28;20037;-76
2023/10/19 02:25:37;;;;;;;20.10;11.65;;;5.80;99.90;;;;;;5035263;28;20036;-75
2023/10/19 02:28:09;;;;;;;18.83;11.20;;;5.70;99.90;;;;;;5035161;28;20029;-76
2023/10/19 02:30:35;;;;;;;21.20;12.00;;;5.70;99.90;;;;;;5036862;28;20472;-75
2023/10/19 02:33:01;;;;;;;16.02;11.18;;;5.80;99.90;;;;;;5036115;28;20075;-75
2023/10/19 02:35:30;;;;;;;18.08;10.32;;;5.80;99.90;;;;;;5036554;28;20025;-77
2023/10/19 02:37:56;;;;;;;18.88;11.43;;;5.80;99.90;;;;;;5051330;28;20022;-75
2023/10/19 02:40:23;;;;;;;17.48;10.77;;;5.70;99.90;;;;;;5036675;28;20083;-76
2023/10/19 02:42:50;;;;;;;19.42;11.55;;;6.20;99.90;;;;;;5036223;28;20022;-75
2023/10/19 02:45:16;;;;;;;21.63;11.48;;;5.60;99.90;;;;;;5036100;28;20084;-76
2023/10/19 02:47:46;;;;;;;17.17;11.55;;;5.60;99.90;;;;;;5035539;28;20025;-76
2023/10/19 02:50:16;;;;;;;20.48;11.88;;;5.60;99.90;;;;;;5051824;28;20025;-75
2023/10/19 02:52:46;;;;;;;19.42;11.75;;;5.50;99.90;;;;;;5052094;28;20034;-76
2023/10/19 02:55:11;;;;;;;19.27;11.82;;;5.50;99.90;;;;;;5035147;28;20025;-75
2023/10/19 02:57:37;;;;;;;14.77;9.48;;;5.50;99.90;;;;;;5052124;28;20524;-75
2023/10/19 03:00:14;;;;;;;18.17;11.32;;;5.50;99.90;;;;;;5034783;28;20057;-76
2023/10/19 03:02:40;;;;;;;17.85;9.55;;;5.40;99.90;;;;;;5035677;28;20021;-77
2023/10/19 03:05:17;;;;;;;17.95;10.93;;;5.40;99.90;;;;;;5034645;28;20029;-75
2023/10/19 03:07:46;;;;;;;18.23;10.48;;;5.30;99.90;;;;;;5036619;28;20025;-75
2023/10/19 03:10:23;;;;;;;17.50;10.68;;;5.30;99.90;;;;;;5035759;28;20049;-76
2023/10/19 03:12:50;;;;;;;20.85;11.10;;;5.40;99.90;;;;;;5035852;28;20032;-77
2023/10/19 03:15:19;;;;;;;19.48;9.85;;;5.30;99.90;;;;;;5035997;28;20397;-74
2023/10/19 03:17:45;;;;;;;18.10;10.38;;;5.30;99.90;;;;;;5034627;28;20021;-77
2023/10/19 03:20:11;;;;;;;18.73;11.75;;;5.30;99.90;;;;;;5034362;28;20021;-76
2023/10/19 03:22:38;;;;;;;18.33;9.77;;;5.30;99.90;;;;;;5035079;28;20026;-75
2023/10/19 03:28:11;;;;;;;16.67;9.95;;;5.30;99.90;;;;;;4981510;28;20043;-76
2023/10/19 03:30:40;;;;;;;16.83;10.35;;;5.20;99.90;;;;;;5034077;28;20033;-77
2023/10/19 03:33:08;;;;;;;16.77;10.05;;;5.20;99.90;;;;;;5034680;28;20033;-77
2023/10/19 03:35:37;;;;;;;19.27;10.07;;;5.10;99.90;;;;;;5035410;28;20026;-75
2023/10/19 03:38:08;;;;;;;16.80;10.77;;;5.10;99.90;;;;;;5035418;28;20385;-75
2023/10/19 03:40:38;;;;;;;17.70;9.93;;;5.10;99.90;;;;;;5035392;28;20022;-77
2023/10/19 03:43:17;;;;;;;22.63;10.57;;;5.00;99.90;;;;;;5033894;28;20022;-77
2023/10/19 03:45:50;;;;;;;14.45;9.75;;;5.40;99.90;;;;;;5050862;28;20022;-77
2023/10/19 03:48:17;;;;;;;17.45;10.32;;;5.00;99.90;;;;;;5033983;28;20025;-77
2023/10/19 03:50:43;;;;;;;15.02;10.00;;;5.00;99.90;;;;;;5033730;28;20018;-75
2023/10/19 03:53:12;;;;;;;19.73;10.65;;;5.10;99.90;;;;;;5032899;28;20025;-75
2023/10/19 03:55:38;;;;;;;20.30;10.05;;;5.00;99.90;;;;;;5050415;28;20128;-76
2023/10/19 03:58:04;;;;;;;15.43;9.82;;;4.90;99.90;;;;;;5034886;28;20081;-77
2023/10/19 04:00:33;;;;;;;15.82;9.30;;;4.90;99.90;;;;;;5050503;28;20053;-76
2023/10/19 04:02:59;;;;;;;16.95;9.85;;;4.90;99.90;;;;;;5049708;28;20032;-77
2023/10/19 04:05:26;;;;;;;13.65;8.30;;;5.00;99.90;;;;;;5033261;28;20021;-75
2023/10/19 04:07:55;;;;;;;18.20;10.43;;;4.90;99.90;;;;;;5034648;28;20026;-75
2023/10/19 04:10:38;;;;;;;18.77;10.32;;;4.80;99.90;;;;;;5034988;28;20535;-76
2023/10/19 04:13:04;;;;;;;13.68;9.05;;;4.90;99.90;;;;;;5038561;28;20068;-77
2023/10/19 04:15:33;;;;;;;16.45;10.02;;;4.80;99.90;;;;;;5039445;28;20052;-77
2023/10/19 04:18:00;;;;;;;15.15;9.40;;;4.80;99.90;;;;;;5038447;28;20029;-78
2023/10/19 04:22:51;;;;;;;17.58;10.18;;;4.70;99.90;;;;;;5038322;28;20471;-77
2023/10/19 04:25:36;;;;;;;16.08;9.82;;;4.70;99.90;;;;;;5038870;28;20047;-75
2023/10/19 04:28:02;;;;;;;16.42;9.27;;;4.70;99.90;;;;;;5036539;28;20105;-76
2023/10/19 04:30:29;;;;;;;15.60;9.20;;;4.70;99.90;;;;;;5035229;28;20079;-75
2023/10/19 04:32:57;;;;;;;19.52;10.50;;;4.60;99.90;;;;;;5049351;28;20033;-76
2023/10/19 04:35:24;;;;;;;17.35;9.32;;;4.60;99.90;;;;;;5032719;28;20397;-76
2023/10/19 04:37:51;;;;;;;16.67;9.32;;;4.60;99.90;;;;;;5049183;28;20021;-74
2023/10/19 04:40:21;;;;;;;15.27;9.50;;;4.50;99.90;;;;;;5033438;28;20105;-76
2023/10/19 04:42:50;;;;;;;21.55;11.38;;;4.50;99.90;;;;;;5031959;28;20022;-77
2023/10/19 04:45:16;;;;;;;19.55;9.68;;;4.50;99.90;;;;;;5034087;28;20029;-76
2023/10/19 04:47:42;;;;;;;16.17;9.55;;;4.50;99.90;;;;;;5033790;28;20477;-76
2023/10/19 04:50:11;;;;;;;21.17;10.93;;;4.50;99.90;;;;;;5033846;28;20068;-76
2023/10/19 04:52:37;;;;;;;16.83;9.95;;;4.50;99.90;;;;;;5033701;28;20469;-76
2023/10/19 04:55:04;;;;;;;15.32;10.05;;;4.50;99.90;;;;;;5033830;28;20079;-76
2023/10/19 04:57:30;;;;;;;16.50;10.52;;;4.50;99.90;;;;;;5049488;28;20051;-76
2023/10/19 04:59:56;;;;;;;15.95;10.00;;;4.50;99.90;;;;;;5032086;28;20507;-76
2023/10/19 05:02:22;;;;;;;20.15;11.73;;;4.50;99.90;;;;;;5033201;28;20021;-76
2023/10/19 05:04:48;;;;;;;17.60;10.88;;;4.40;99.90;;;;;;5032848;28;20485;-75
2023/10/19 05:07:17;;;;;;;20.10;10.95;;;4.40;99.90;;;;;;5033461;28;20036;-75
2023/10/19 05:09:46;;;;;;;20.63;9.27;;;4.50;99.90;;;;;;5048882;28;20029;-76
2023/10/19 05:12:14;;;;;;;18.40;10.77;;;4.40;99.90;;;;;;5033246;28;20060;-76
2023/10/19 05:14:41;;;;;;;18.55;10.82;;;4.40;99.90;;;;;;5031690;28;20031;-76
2023/10/19 05:17:12;;;;;;;15.23;9.93;;;4.40;99.90;;;;;;5032757;28;20022;-76
2023/10/19 05:19:39;;;;;;;17.80;10.27;;;4.40;99.90;;;;;;5048085;28;20017;-76
2023/10/19 05:22:06;;;;;;;17.77;10.77;;;4.40;99.90;;;;;;5032993;28;20487;-75
2023/10/19 05:24:32;;;;;;;16.77;9.60;;;4.50;99.90;;;;;;5032241;28;20033;-76
2023/10/19 05:26:58;;;;;;;16.05;10.50;;;4.50;99.90;;;;;;5032996;28;20566;-76
2023/10/19 05:29:24;;;;;;;22.17;11.65;;;4.40;99.90;;;;;;5031216;28;20546;-76
2023/10/19 05:31:54;;;;;;;20.83;11.85;;;4.40;99.90;;;;;;5019067;28;20168;-77
2023/10/19 05:34:23;;;;;;;23.65;12.98;;;4.40;99.90;;;;;;5013798;28;20025;-75
2023/10/19 05:36:49;;;;;;;18.13;11.60;;;5.60;99.90;;;;;;5015123;28;20026;-76
2023/10/19 05:39:19;;;;;;;22.02;11.32;;;5.40;99.90;;;;;;5017531;28;20137;-76
2023/10/19 05:41:44;;;;;;;21.63;12.27;;;5.40;99.90;;;;;;5013531;28;20034;-76
2023/10/19 05:44:10;;;;;;;20.45;11.60;;;5.10;99.90;;;;;;5012995;28;20104;-76
2023/10/19 05:46:37;;;;;;;17.17;10.60;;;4.80;99.90;;;;;;5015356;28;20026;-75
2023/10/19 05:49:03;;;;;;;17.67;10.75;;;4.80;99.90;;;;;;5017547;28;20457;-75
2023/10/19 05:51:32;;;;;;;53.42;21.88;;;4.80;99.90;;;;;;5016106;28;20481;-75
2023/10/19 05:54:04;;;;;;;43.35;20.23;;;4.80;99.90;;;;;;5016868;28;20374;-75
2023/10/19 05:56:30;;;;;;;37.70;17.10;;;4.80;99.90;;;;;;5018139;28;20022;-75
2023/10/19 05:58:56;;;;;;;30.65;14.90;;;4.90;99.90;;;;;;5017941;28;20034;-76
2023/10/19 06:01:22;;;;;;;21.50;12.63;;;4.90;99.90;;;;;;5020213;28;20018;-77
2023/10/19 06:03:48;;;;;;;26.55;12.93;;;4.90;99.90;;;;;;5024204;28;20021;-78
2023/10/19 06:06:14;;;;;;;18.50;11.93;;;5.00;99.90;;;;;;5021510;28;20033;-77
2023/10/19 06:08:43;;;;;;;15.80;10.77;;;5.00;99.90;;;;;;5021637;28;20097;-77
2023/10/19 06:11:09;;;;;;;21.83;11.43;;;5.00;99.90;;;;;;5019478;28;20075;-76
2023/10/19 06:13:34;;;;;;;20.52;12.95;;;5.20;99.90;;;;;;5018350;28;20097;-76
2023/10/19 06:16:00;;;;;;;20.60;12.38;;;5.10;99.90;;;;;;5036410;28;20395;-78
2023/10/19 06:18:25;;;;;;;25.50;14.07;;;5.20;99.90;;;;;;5034728;28;20048;-75
2023/10/19 06:20:54;;;;;;;23.42;15.13;;;5.30;99.90;;;;;;5039007;28;20017;-77
2023/10/19 06:23:20;;;;;;;19.75;13.15;;;5.30;99.90;;;;;;5037841;28;20389;-76
2023/10/19 06:25:46;;;;;;;27.75;14.27;;;5.40;99.90;;;;;;5049399;28;20025;-77
2023/10/19 06:28:12;;;;;;;20.23;11.98;;;5.50;99.90;;;;;;5056852;28;20018;-84
2023/10/19 06:30:38;;;;;;;20.98;12.18;;;5.60;99.90;;;;;;5058537;28;20040;-85
2023/10/19 06:33:04;;;;;;;25.67;13.35;;;5.70;99.90;;;;;;5050906;28;20083;-83
2023/10/19 06:35:33;;;;;;;22.63;12.90;;;5.70;99.90;;;;;;5045793;28;20026;-85
2023/10/19 06:38:03;;;;;;;27.05;15.15;;;6.40;99.90;;;;;;5044455;28;20164;-82
2023/10/19 06:40:30;;;;;;;25.70;14.68;;;7.80;99.90;;;;;;5041117;28;20032;-82
2023/10/19 06:42:57;;;;;;;24.13;16.58;;;9.40;99.90;;;;;;5041556;28;20022;-83
2023/10/19 06:45:24;;;;;;;28.27;17.05;;;10.20;99.90;;;;;;5042765;28;20022;-82
2023/10/19 06:47:50;;;;;;;24.15;14.95;;;10.50;99.90;;;;;;5042006;28;20053;-81
2023/10/19 06:50:17;;;;;;;24.83;15.38;;;11.10;99.90;;;;;;5045418;28;20037;-85
2023/10/19 06:52:44;;;;;;;22.83;13.45;;;11.00;99.90;;;;;;5040534;28;20477;-79
2023/10/19 06:55:13;;;;;;;21.50;13.05;;;11.20;99.90;;;;;;5040772;28;20029;-79
2023/10/19 06:57:43;;;;;;;21.20;11.40;;;11.10;99.90;;;;;;5041737;28;20026;-81
2023/10/19 07:00:14;;;;;;;20.25;12.30;;;10.90;99.90;;;;;;5039192;28;20049;-80
2023/10/19 07:02:41;;;;;;;20.55;11.88;;;11.50;99.10;;;;;;5042494;28;20013;-79
2023/10/19 07:05:10;;;;;;;14.77;10.15;;;11.60;98.10;;;;;;5041219;28;20500;-79
2023/10/19 07:07:36;;;;;;;15.68;10.25;;;11.70;97.80;;;;;;5043087;28;20045;-81
2023/10/19 07:10:03;;;;;;;14.45;9.73;;;11.70;97.80;;;;;;5044219;28;20439;-82
2023/10/19 07:12:29;;;;;;;12.75;8.90;;;12.00;96.80;;;;;;5045277;28;20021;-82
2023/10/19 07:14:54;;;;;;;11.02;8.80;;;11.80;96.60;;;;;;5058089;28;20036;-83
2023/10/19 07:17:20;;;;;;;15.23;9.80;;;11.70;96.90;;;;;;5057780;28;20024;-85
2023/10/19 07:19:48;;;;;;;12.63;9.75;;;11.70;96.40;;;;;;5059547;28;20060;-83
2023/10/19 07:22:15;;;;;;;12.75;8.52;;;11.70;96.90;;;;;;5043249;28;20017;-83
2023/10/19 07:24:41;;;;;;;16.65;9.65;;;11.60;96.60;;;;;;5042203;28;20116;-80
2023/10/19 07:27:07;;;;;;;14.45;9.52;;;11.70;97.00;;;;;;5041426;28;20025;-80
2023/10/19 07:29:35;;;;;;;16.85;9.88;;;11.80;96.60;;;;;;5042074;28;20396;-81
2023/10/19 07:32:02;;;;;;;20.70;9.27;;;12.10;96.30;;;;;;5039627;28;20022;-79
2023/10/19 07:34:33;;;;;;;14.98;9.00;;;11.80;96.40;;;;;;5039691;28;20025;-80
2023/10/19 07:36:59;;;;;;;14.85;9.02;;;12.10;96.00;;;;;;5041256;28;20017;-77
2023/10/19 07:39:29;;;;;;;11.75;8.75;;;12.30;95.80;;;;;;5042458;28;20037;-79
2023/10/19 07:41:55;;;;;;;14.27;8.70;;;12.20;96.20;;;;;;5039819;28;20021;-79
2023/10/19 07:44:21;;;;;;;13.25;9.27;;;11.80;96.80;;;;;;5039125;28;20032;-79
2023/10/19 07:46:47;;;;;;;13.43;9.50;;;12.10;96.80;;;;;;5057379;28;20093;-83
2023/10/19 07:49:15;;;;;;;15.73;8.85;;;12.00;96.90;;;;;;5037497;28;20072;-75
2023/10/19 07:51:51;;;;;;;13.00;9.57;;;12.00;97.60;;;;;;5037187;28;20087;-78
2023/10/19 07:54:16;;;;;;;12.55;8.50;;;11.60;98.80;;;;;;5038517;28;20589;-76
2023/10/19 07:56:43;;;;;;;17.75;9.18;;;11.90;99.10;;;;;;5036374;28;20065;-77
2023/10/19 07:59:09;;;;;;;13.80;8.75;;;11.70;99.60;;;;;;5036817;28;20029;-76
2023/10/19 08:01:36;;;;;;;14.10;9.25;;;11.90;99.80;;;;;;5038576;28;20028;-75
2023/10/19 08:04:01;;;;;;;14.30;9.60;;;12.20;99.70;;;;;;5036600;28;20061;-77
2023/10/19 08:06:27;;;;;;;11.88;9.05;;;12.40;99.30;;;;;;5037828;28;20032;-76
2023/10/19 08:08:53;;;;;;;14.18;9.32;;;12.40;99.10;;;;;;5038002;28;20030;-77
2023/10/19 08:11:18;;;;;;;15.77;10.00;;;12.50;99.20;;;;;;5037273;28;20189;-77
2023/10/19 08:13:44;;;;;;;14.35;9.25;;;12.70;98.90;;;;;;5036035;28;20124;-77
2023/10/19 08:16:12;;;;;;;11.60;8.40;;;12.70;99.50;;;;;;5035644;28;20428;-76
2023/10/19 08:18:37;;;;;;;14.13;9.00;;;12.70;99.90;;;;;;5037105;28;20108;-79
2023/10/19 08:21:03;;;;;;;13.60;8.93;;;12.90;99.70;;;;;;5036681;28;20057;-77
2023/10/19 08:23:31;;;;;;;12.15;7.30;;;13.00;99.70;;;;;;5034620;28;20033;-77
2023/10/19 08:25:57;;;;;;;13.70;7.82;;;13.10;99.90;;;;;;5034853;28;20029;-79
2023/10/19 08:28:23;;;;;;;10.60;7.65;;;13.00;99.90;;;;;;5036559;28;20512;-77
2023/10/19 08:31:00;;;;;;;10.45;7.40;;;13.10;99.90;;;;;;5036523;28;20025;-78
2023/10/19 08:33:27;;;;;;;8.02;6.00;;;13.20;99.90;;;;;;5034493;28;20021;-76
2023/10/19 08:35:53;;;;;;;9.77;6.60;;;13.20;99.90;;;;;;5034389;28;20117;-78
2023/10/19 08:38:19;;;;;;;9.45;6.70;;;13.40;99.90;;;;;;5035062;28;20052;-78
2023/10/19 08:40:45;;;;;;;10.20;6.18;;;13.50;99.90;;;;;;5035748;28;20481;-77
2023/10/19 08:43:13;;;;;;;10.68;5.68;;;13.50;99.90;;;;;;5034963;28;20025;-78
2023/10/19 08:45:39;;;;;;;8.98;5.90;;;13.60;99.90;;;;;;5035638;28;20099;-77
2023/10/19 08:48:05;;;;;;;8.80;6.68;;;13.50;99.90;;;;;;5035938;28;20025;-79
2023/10/19 08:50:34;;;;;;;8.88;6.32;;;13.70;99.90;;;;;;5033390;28;20025;-77
2023/10/19 08:53:02;;;;;;;13.13;8.27;;;13.60;99.90;;;;;;5034512;28;20078;-76
2023/10/19 08:55:28;;;;;;;11.23;9.00;;;13.70;99.90;;;;;;5037378;28;20105;-77
2023/10/19 08:57:53;;;;;;;58.58;34.45;;;13.80;99.90;;;;;;5035468;28;20057;-76
2023/10/19 09:00:24;;;;;;;14.07;11.38;;;13.90;99.90;;;;;;5037138;28;20040;-77
2023/10/19 09:02:51;;;;;;;10.55;5.47;;;14.10;99.90;;;;;;5035792;28;20552;-77
2023/10/19 09:05:27;;;;;;;9.48;5.57;;;14.20;99.90;;;;;;5034573;28;20071;-78
2023/10/19 09:07:56;;;;;;;11.10;6.82;;;14.40;99.90;;;;;;5033843;28;20032;-77
2023/10/19 09:10:22;;;;;;;8.13;6.32;;;14.50;99.90;;;;;;5034076;28;20025;-78
2023/10/19 09:13:03;;;;;;;8.10;5.30;;;14.60;99.90;;;;;;5033007;28;20374;-77
2023/10/19 09:15:35;;;;;;;10.10;5.32;;;14.80;99.90;;;;;;5033498;28;20585;-77
2023/10/19 09:18:21;;;;;;;8.07;5.47;;;14.80;99.90;;;;;;5033880;28;20025;-77
2023/10/19 09:21:02;;;;;;;;;;;14.80;99.90;;;;;;5034981;28;20021;-78
2023/10/19 09:23:29;;;;;;;11.88;6.57;;;14.90;99.90;;;;;;5033940;28;19913;-77
2023/10/19 09:25:57;;;;;;;8.63;5.68;;;15.00;99.90;;;;;;5032306;28;20513;-76
2023/10/19 09:28:24;;;;;;;7.47;4.50;;;15.10;99.90;;;;;;5033541;28;20539;-77
2023/10/19 09:30:51;;;;;;;7.63;5.50;;;15.20;99.90;;;;;;5036203;28;20027;-78
2023/10/19 09:33:24;;;;;;;7.47;4.88;;;15.20;99.90;;;;;;5041050;28;20532;-77
2023/10/19 09:35:56;;;;;;;7.90;5.05;;;15.30;99.90;;;;;;5027573;28;20060;-79
2023/10/19 09:38:22;;;;;;;11.48;7.30;;;15.40;99.90;;;;;;5040211;28;20033;-78
2023/10/19 09:40:54;;;;;;;7.22;4.80;;;15.50;99.90;;;;;;5034598;28;20032;-77
2023/10/19 09:43:43;;;;;;;6.15;4.55;;;15.60;99.90;;;;;;5042460;28;20025;-77
2023/10/19 09:46:12;;;;;;;6.38;3.83;;;15.70;99.90;;;;;;5032030;28;20389;-77
2023/10/19 09:48:45;;;;;;;6.05;3.75;;;15.70;99.90;;;;;;5033817;28;20022;-78
2023/10/19 09:51:11;;;;;;;4.40;3.75;;;15.70;99.90;;;;;;5032123;28;20025;-79
2023/10/19 09:53:39;;;;;;;5.68;3.97;;;15.90;99.90;;;;;;5033845;28;20028;-78
2023/10/19 09:56:08;;;;;;;8.10;3.90;;;16.00;99.90;;;;;;5032001;28;20022;-76
2023/10/19 09:58:46;;;;;;;8.95;3.97;;;16.10;99.90;;;;;;5033732;28;20021;-77
2023/10/19 10:01:14;;;;;;;6.93;4.32;;;16.20;99.90;;;;;;5033032;28;20029;-77
2023/10/19 10:03:46;;;;;;;14.40;8.50;;;16.30;99.90;;;;;;5035441;28;20026;-78
2023/10/19 10:06:14;;;;;;;17.85;9.10;;;16.30;99.90;;;;;;5035643;28;20523;-78
2023/10/19 10:08:42;;;;;;;3.60;3.30;;;16.40;99.90;;;;;;5034820;28;20519;-78
2023/10/19 10:11:16;;;;;;;6.15;3.45;;;16.40;99.90;;;;;;5034416;28;20022;-77
2023/10/19 10:13:45;;;;;;;33.35;14.77;;;16.50;99.90;;;;;;5031482;28;20116;-76
2023/10/19 10:16:13;;;;;;;5.80;4.90;;;16.50;99.90;;;;;;5033802;28;20088;-77
2023/10/19 10:18:41;;;;;;;7.03;4.55;;;16.60;99.90;;;;;;5034164;28;20028;-76
2023/10/19 10:21:17;;;;;;;3.80;2.92;;;16.60;99.90;;;;;;5034883;28;20056;-78
2023/10/19 10:23:47;;;;;;;16.48;8.18;;;16.70;99.90;;;;;;5033003;28;20192;-77
2023/10/19 10:26:22;;;;;;;8.80;5.32;;;16.80;99.90;;;;;;5033144;28;20018;-78
2023/10/19 10:29:09;;;;;;;4.20;3.38;;;16.80;99.90;;;;;;5033019;28;20026;-82
2023/10/19 10:31:40;;;;;;;5.55;3.67;;;16.80;99.90;;;;;;5033078;28;20029;-78
2023/10/19 10:34:09;;;;;;;5.50;4.30;;;16.90;99.90;;;;;;5033144;28;20025;-77
2023/10/19 10:36:58;;;;;;;3.60;3.30;;;17.00;99.90;;;;;;5035268;28;20031;-76
2023/10/19 10:39:25;;;;;;;4.53;2.97;;;17.20;99.90;;;;;;5035931;28;20017;-80
2023/10/19 10:42:04;;;;;;;4.40;3.55;;;17.40;99.90;;;;;;5036095;28;20028;-77
2023/10/19 10:44:38;;;;;;;6.68;6.05;;;17.50;99.90;;;;;;5035016;28;20025;-77
2023/10/19 10:47:08;;;;;;;4.82;3.00;;;17.60;99.90;;;;;;5033736;28;20021;-78
2023/10/19 10:49:35;;;;;;;3.47;2.60;;;17.70;99.90;;;;;;5036591;28;20512;-76
2023/10/19 10:52:01;;;;;;;6.13;3.47;;;17.80;99.90;;;;;;5037006;28;20129;-78
2023/10/19 10:54:26;;;;;;;4.97;4.20;;;17.70;99.90;;;;;;5035348;28;20061;-76
2023/10/19 10:56:52;;;;;;;5.10;4.28;;;17.80;99.90;;;;;;5035105;28;20123;-75
2023/10/19 10:59:17;;;;;;;3.58;2.92;;;17.90;99.90;;;;;;5036025;28;20076;-75
2023/10/19 11:01:43;;;;;;;3.63;3.33;;;18.10;99.90;;;;;;5030364;28;20022;-75
2023/10/19 11:04:10;;;;;;;3.22;2.72;;;18.00;99.90;;;;;;5018068;28;20117;-76
2023/10/19 11:06:55;;;;;;;6.55;4.63;;;18.00;99.90;;;;;;5015775;28;20029;-76
2023/10/19 11:09:24;;;;;;;7.93;3.42;;;17.90;99.90;;;;;;5030360;28;20037;-75
2023/10/19 11:11:51;;;;;;;3.70;3.33;;;17.90;99.90;;;;;;5015365;28;20853;-76
2023/10/19 11:14:17;;;;;;;4.95;3.25;;;17.90;99.90;;;;;;5014562;28;20544;-75
2023/10/19 11:16:43;;;;;;;3.88;2.72;;;17.90;99.90;;;;;;5015175;28;20022;-75
2023/10/19 11:19:09;;;;;;;6.18;2.80;;;18.00;99.90;;;;;;5015660;28;20026;-76
2023/10/19 11:21:36;;;;;;;3.47;2.35;;;18.10;99.90;;;;;;5030967;28;20478;-77
2023/10/19 11:24:02;;;;;;;2.90;2.30;;;18.20;99.90;;;;;;5014041;28;20064;-76
2023/10/19 11:26:29;;;;;;;3.67;3.30;;;18.40;99.90;;;;;;5015223;28;20025;-76
2023/10/19 11:29:01;;;;;;;4.18;3.58;;;18.60;99.90;;;;;;5030464;28;20032;-76
2023/10/19 11:31:27;;;;;;;2.92;2.55;;;18.80;99.90;;;;;;5030039;28;20033;-76
2023/10/19 11:33:58;;;;;;;3.63;3.33;;;19.00;99.90;;;;;;5030196;28;20029;-76
2023/10/19 11:36:24;;;;;;;2.67;2.47;;;19.10;99.90;;;;;;5015233;28;20050;-76
2023/10/19 11:38:52;;;;;;;1.42;1.33;;;19.30;99.90;;;;;;5030372;28;20026;-76
2023/10/19 11:41:18;;;;;;;2.53;2.30;;;19.30;99.90;;;;;;5015818;28;20018;-77
2023/10/19 11:43:48;;;;;;;2.80;1.85;;;19.50;99.90;;;;;;5014953;28;20018;-75
2023/10/19 11:46:15;;;;;;;1.50;1.40;;;19.40;99.90;;;;;;5029804;28;20081;-75
2023/10/19 11:48:42;;;;;;;3.70;2.05;;;19.50;99.90;;;;;;5039502;28;20033;-75
2023/10/19 11:51:10;;;;;;;1.88;1.73;;;19.50;99.90;;;;;;5054807;28;20497;-74
2023/10/19 11:53:37;;;;;;;1.88;1.60;;;19.50;99.90;;;;;;5041930;28;20100;-74
2023/10/19 11:56:06;;;;;;;4.28;1.10;;;19.60;99.90;;;;;;5017025;28;20104;-76
2023/10/19 11:58:34;;;;;;;1.67;1.45;;;19.70;99.90;;;;;;5016826;28;20162;-76
2023/10/19 12:01:05;;;;;;;1.55;0.80;;;19.90;99.90;;;;;;5029477;28;20031;-76
2023/10/19 12:03:31;;;;;;;1.95;1.20;;;20.10;99.90;;;;;;5033381;28;20104;-78
2023/10/19 12:05:56;;;;;;;3.47;2.00;;;20.10;99.90;;;;;;5033816;28;20030;-77
2023/10/19 12:08:22;;;;;;;1.33;1.10;;;20.20;99.90;;;;;;5048869;28;20026;-81
2023/10/19 12:10:50;;;;;;;2.25;1.55;;;20.40;99.90;;;;;;5032329;28;20029;-80
2023/10/19 12:13:16;;;;;;;4.32;1.45;;;20.50;99.90;;;;;;5032118;28;20116;-78
2023/10/19 12:15:43;;;;;;;2.70;1.75;;;20.40;99.90;;;;;;5048689;28;20024;-78
2023/10/19 12:18:11;;;;;;;6.53;4.97;;;20.40;99.90;;;;;;5033281;28;20464;-78
2023/10/19 12:20:36;;;;;;;2.65;1.98;;;20.30;99.90;;;;;;5033800;28;20053;-80
2023/10/19 12:23:05;;;;;;;6.88;2.80;;;20.10;99.90;;;;;;5032822;28;20044;-79
2023/10/19 12:25:31;;;;;;;1.77;1.65;;;19.90;99.90;;;;;;5033392;28;20033;-80
2023/10/19 12:27:58;;;;;;;2.50;1.33;;;19.80;99.90;;;;;;5033735;28;20025;-78
2023/10/19 12:30:26;;;;;;;4.25;2.08;;;19.60;99.90;;;;;;5048784;28;20025;-78
2023/10/19 12:32:55;;;;;;;4.40;1.30;;;19.60;99.90;;;;;;5031872;28;20048;-78
2023/10/19 12:35:24;;;;;;;1.27;1.02;;;19.60;99.90;;;;;;5032858;28;20392;-80
2023/10/19 12:37:55;;;;;;;16.92;10.25;;;19.60;99.90;;;;;;5032436;28;20071;-80
2023/10/19 12:40:28;;;;;;;2.55;1.92;;;19.50;99.90;;;;;;5032048;28;20021;-79
2023/10/19 12:42:54;;;;;;;1.85;0.98;;;19.60;99.90;;;;;;5033025;28;20068;-78
2023/10/19 12:45:26;;;;;;;4.32;1.08;;;19.60;99.90;;;;;;5032047;28;20056;-79
2023/10/19 12:47:51;;;;;;;1.70;0.80;;;19.60;99.90;;;;;;5033209;28;20507;-79
2023/10/19 12:50:22;;;;;;;1.55;1.45;;;19.60;99.90;;;;;;5032061;28;20030;-79
2023/10/19 12:52:49;;;;;;;2.28;1.05;;;19.70;99.90;;;;;;5031953;28;20029;-79
2023/10/19 12:55:16;;;;;;;2.20;1.00;;;19.70;99.90;;;;;;5031384;28;20140;-80
2023/10/19 12:57:41;;;;;;;14.13;1.90;;;19.80;99.90;;;;;;5031025;28;20112;-78
2023/10/19 13:00:28;;;;;;;2.80;1.05;;;20.00;99.90;;;;;;5031887;28;20056;-79
2023/10/19 13:02:59;;;;;;;2.45;0.80;;;20.30;99.90;;;;;;5031623;28;20473;-78
2023/10/19 13:05:35;;;;;;;0.50;0.50;;;20.50;99.90;;;;;;5031801;28;20534;-79
2023/10/19 13:08:01;;;;;;;1.38;0.98;;;20.70;99.90;;;;;;5032910;28;20083;-79